ADDS METAR Data INFO
IDs: Format: Raw Decoded Include TAF

Data at: 1040 UTC 19 Oct 2017

K8A0 191035Z AUTO 09003KT 10SM CLR 09/09 A3026 RMK AO2
K8A0 191015Z AUTO 11004KT 10SM CLR 09/09 A3026 RMK AO2
K8A0 190955Z AUTO 10004KT 10SM CLR 09/09 A3026 RMK AO2
K8A0 190935Z AUTO 10004KT 10SM CLR 09/09 A3026 RMK AO2
K8A0 190915Z AUTO 09004KT 10SM CLR 08/08 A3025 RMK AO2
K8A0 190855Z AUTO 09004KT 10SM CLR 08/08 A3026 RMK AO2
K8A0 190835Z AUTO 09004KT 10SM CLR 07/07 A3026 RMK AO2
K8A0 190815Z AUTO 10003KT 10SM CLR 08/08 A3026 RMK AO2
K8A0 190755Z AUTO 11003KT 10SM CLR 10/10 A3026 RMK AO2
K8A0 190735Z AUTO 12003KT 10SM CLR 10/10 A3026 RMK AO2
K8A0 190715Z AUTO 11003KT 10SM CLR 08/08 A3026 RMK AO2
K8A0 190655Z AUTO 11004KT 10SM CLR 11/11 A3026 RMK AO2
K8A0 190635Z AUTO 11003KT 10SM CLR 10/10 A3026 RMK AO2
K8A0 190615Z AUTO 12004KT 10SM CLR 11/11 A3026 RMK AO2
K8A0 190555Z AUTO 00000KT 10SM CLR 11/11 A3026 RMK AO2
K8A0 190535Z AUTO 13003KT 10SM CLR 11/11 A3026 RMK AO2
K8A0 190515Z AUTO 12003KT 10SM CLR 11/11 A3026 RMK AO2
K8A0 190455Z AUTO 12003KT 10SM CLR 10/10 A3026 RMK AO2
K8A0 190435Z AUTO 11004KT 10SM CLR 11/11 A3026 RMK AO2
K8A0 190415Z AUTO 00000KT 10SM CLR 11/11 A3027 RMK AO2
K8A0 190355Z AUTO 00000KT 10SM CLR 12/11 A3027 RMK AO2
K8A0 190335Z AUTO 00000KT 10SM CLR 12/11 A3026 RMK AO2
K8A0 190315Z AUTO 10003KT 10SM CLR 12/11 A3026 RMK AO2
K8A0 190255Z AUTO 00000KT 10SM CLR 12/11 A3026 RMK AO2
K8A0 190235Z AUTO 09003KT 10SM SCT110 11/11 A3026 RMK AO2
K8A0 190215Z AUTO 09003KT 10SM BKN110 11/11 A3026 RMK AO2
K8A0 190155Z AUTO 09004KT 10SM SCT110 12/12 A3026 RMK AO2
K8A0 190135Z AUTO 09003KT 10SM CLR 12/12 A3026 RMK AO2
K8A0 190115Z AUTO 09003KT 10SM CLR 12/12 A3026 RMK AO2
K8A0 190055Z AUTO 10003KT 10SM CLR 13/12 A3026 RMK AO2
K8A0 190035Z AUTO 09003KT 10SM CLR 13/12 A3026 RMK AO2
K8A0 190015Z AUTO 09003KT 10SM CLR 13/12 A3026 RMK AO2
K8A0 182355Z AUTO 08004KT 10SM CLR 15/12 A3025 RMK AO2
K8A0 182335Z AUTO 00000KT 10SM CLR 15/12 A3025 RMK AO2
K8A0 182315Z AUTO 09004KT 10SM CLR 16/11 A3024 RMK AO2
K8A0 182255Z AUTO 09003KT 10SM CLR 18/11 A3024 RMK AO2
K8A0 182235Z AUTO 11003KT 10SM CLR 19/11 A3024 RMK AO2
K8A0 182215Z AUTO 10004KT 10SM CLR 20/11 A3024 RMK AO2
K8A0 182155Z AUTO 11003KT 10SM CLR 20/11 A3024 RMK AO2
K8A0 182135Z AUTO 13003KT 10SM CLR 20/11 A3024 RMK AO2
K8A0 182115Z AUTO 13003KT 10SM CLR 20/10 A3024 RMK AO2
K8A0 182055Z AUTO 12003KT 10SM CLR 20/10 A3024 RMK AO2
K8A0 182035Z AUTO 14005KT 10SM CLR 21/11 A3024 RMK AO2
K8A0 182015Z AUTO 08003KT 10SM CLR 21/11 A3024 RMK AO2
K8A0 181955Z AUTO 09004KT 10SM CLR 20/11 A3025 RMK AO2
K8A0 181935Z AUTO 13004KT 10SM CLR 20/11 A3026 RMK AO2
K8A0 181915Z AUTO 15005KT 10SM CLR 20/10 A3026 RMK AO2
K8A0 181855Z AUTO 17005KT 10SM CLR 20/10 A3027 RMK AO2
K8A0 181835Z AUTO 16004KT 10SM CLR 19/10 A3027 RMK AO2
K8A0 181815Z AUTO 08003KT 10SM CLR 19/11 A3028 RMK AO2
K8A0 181755Z AUTO 14005KT 10SM CLR 18/10 A3029 RMK AO2
K8A0 181735Z AUTO 10004KT 10SM CLR 18/10 A3031 RMK AO2
K8A0 181715Z AUTO 13007KT 10SM CLR 18/10 A3032 RMK AO2
K8A0 181655Z AUTO 14005KT 10SM CLR 18/10 A3032 RMK AO2
K8A0 181635Z AUTO 12005KT 10SM CLR 17/09 A3032 RMK AO2
K8A0 181615Z AUTO 10009KT 069V129 10SM CLR 17/08 A3033 RMK AO2
K8A0 181555Z AUTO 11007KT 10SM CLR 17/09 A3033 RMK AO2
K8A0 181535Z AUTO 11003KT 10SM CLR 16/10 A3033 RMK AO2
K8A0 181515Z AUTO 10007KT 10SM CLR 16/10 A3033 RMK AO2
K8A0 181455Z AUTO 13007KT 099V159 10SM CLR 15/09 A3032 RMK AO2
K8A0 181435Z AUTO 14004KT 10SM CLR 14/10 A3032 RMK AO2
K8A0 181415Z AUTO 12003KT 10SM CLR 13/10 A3032 RMK AO2
K8A0 181355Z AUTO 11005KT 10SM CLR 12/10 A3031 RMK AO2
K8A0 181335Z AUTO 12005KT 10SM CLR 12/10 A3031 RMK AO2
K8A0 181315Z AUTO 10004KT 10SM CLR 10/10 A3031 RMK AO2
K8A0 181255Z AUTO 11004KT 10SM CLR 09/09 A3030 RMK AO2
K8A0 181235Z AUTO 11003KT 10SM CLR 08/08 A3030 RMK AO2
K8A0 181215Z AUTO 10004KT 10SM CLR 07/07 A3029 RMK AO2
K8A0 181155Z AUTO 10003KT 10SM CLR 07/07 A3029 RMK AO2
K8A0 181135Z AUTO 00000KT 10SM CLR 07/07 A3029 RMK AO2
K8A0 181115Z AUTO 12003KT 10SM CLR 07/07 A3029 RMK AO2
K8A0 181055Z AUTO 12003KT 10SM CLR 07/07 A3029 RMK AO2
K8A0 181035Z AUTO 00000KT 10SM CLR 07/07 A3029 RMK AO2
K8A0 181015Z AUTO 00000KT 07/07 A3029 RMK AO2 PWINO
K8A0 180955Z AUTO 10003KT 10SM CLR 07/07 A3028 RMK AO2
K8A0 180935Z AUTO 08003KT 10SM CLR 07/07 A3028 RMK AO2
K8A0 180915Z AUTO 00000KT 10SM CLR 07/07 A3027 RMK AO2
K8A0 180855Z AUTO 00000KT 10SM CLR 08/08 A3027 RMK AO2
K8A0 180835Z AUTO 00000KT 10SM CLR 08/08 A3026 RMK AO2
K8A0 180815Z AUTO 09003KT 10SM CLR 08/08 A3026 RMK AO2
K8A0 180755Z AUTO 08003KT 10SM CLR 08/08 A3027 RMK AO2
K8A0 180735Z AUTO 00000KT 10SM CLR 08/08 A3027 RMK AO2
K8A0 180715Z AUTO 09003KT 10SM CLR 08/08 A3026 RMK AO2
K8A0 180655Z AUTO 09004KT 10SM CLR 08/08 A3027 RMK AO2
K8A0 180635Z AUTO 09004KT 10SM CLR 08/08 A3027 RMK AO2
K8A0 180615Z AUTO 08003KT 10SM CLR 08/08 A3027 RMK AO2
K8A0 180555Z AUTO 09004KT 10SM CLR 08/08 A3027 RMK AO2
K8A0 180535Z AUTO 08003KT 10SM CLR 09/09 A3027 RMK AO2
K8A0 180515Z AUTO 07003KT 10SM CLR 10/10 A3027 RMK AO2
K8A0 180455Z AUTO 08003KT 10SM CLR 10/10 A3027 RMK AO2
K8A0 180435Z AUTO 08004KT 10SM CLR 09/09 A3028 RMK AO2
K8A0 180415Z AUTO 10004KT 10SM CLR 10/10 A3028 RMK AO2
K8A0 180355Z AUTO 07003KT 10SM CLR 10/10 A3028 RMK AO2
K8A0 180335Z AUTO 08004KT 10SM CLR 10/10 A3028 RMK AO2
K8A0 180315Z AUTO 09004KT 10SM CLR 10/10 A3028 RMK AO2
K8A0 180255Z AUTO 07004KT 10SM CLR 10/10 A3028 RMK AO2
K8A0 180235Z AUTO 00000KT 10SM CLR 11/11 A3028 RMK AO2
K8A0 180215Z AUTO 00000KT 10SM SCT110 10/10 A3027 RMK AO2
K8A0 180155Z AUTO 08003KT 10SM SCT110 10/10 A3026 RMK AO2
K8A0 180135Z AUTO 10003KT 10SM SCT120 11/11 A3026 RMK AO2
K8A0 180115Z AUTO 00000KT 10SM CLR 11/11 A3026 RMK AO2
K8A0 180055Z AUTO 11003KT 10SM CLR 12/11 A3025 RMK AO2
K8A0 180035Z AUTO 00000KT 10SM CLR 12/11 A3024 RMK AO2
K8A0 180015Z AUTO 00000KT 10SM CLR 13/11 A3024 RMK AO2
K8A0 172355Z AUTO 00000KT 10SM CLR 15/10 A3023 RMK AO2
K8A0 172335Z AUTO 09003KT 10SM CLR 15/10 A3023 RMK AO2
K8A0 172315Z AUTO 07003KT 10SM CLR 15/10 A3023 RMK AO2
K8A0 172255Z AUTO 00000KT 10SM CLR 16/10 A3023 RMK AO2